createdAt,value
2022-12-01T00:01:06.207Z,42.72
2022-12-01T00:03:33.581Z,41.85
2022-12-01T00:06:00.914Z,39.90
2022-12-01T00:08:29.091Z,43.08
2022-12-01T00:10:56.243Z,36.05
2022-12-01T00:13:22.858Z,42.30
2022-12-01T00:15:49.461Z,38.78
2022-12-01T00:18:18.832Z,44.58
2022-12-01T00:20:45.416Z,47.53
2022-12-01T00:23:11.895Z,44.22
2022-12-01T00:25:38.403Z,44.05
2022-12-01T00:28:04.839Z,26.55
2022-12-01T00:30:31.295Z,33.53
2022-12-01T00:32:57.728Z,40.25
2022-12-01T00:35:24.191Z,45.30
2022-12-01T00:37:50.642Z,32.90
2022-12-01T00:40:17.276Z,40.03
2022-12-01T00:42:43.713Z,36.78
2022-12-01T00:45:10.907Z,41.13
2022-12-01T00:47:37.522Z,31.45
2022-12-01T00:50:04.264Z,38.33
2022-12-01T00:52:30.676Z,40.22
2022-12-01T00:54:57.113Z,43.90
2022-12-01T00:57:23.531Z,34.25
2022-12-01T00:59:50.487Z,44.90
2022-12-01T01:02:17.235Z,46.42
2022-12-01T01:04:43.938Z,43.10
2022-12-01T01:07:10.405Z,45.33
2022-12-01T01:09:37.290Z,37.92
2022-12-01T01:12:03.874Z,40.78
2022-12-01T01:14:30.323Z,33.70
2022-12-01T01:16:56.850Z,38.58
2022-12-01T01:19:23.975Z,38.17
2022-12-01T01:21:50.517Z,42.35
2022-12-01T01:24:17.294Z,40.78
2022-12-01T01:26:43.760Z,36.70
2022-12-01T01:29:10.349Z,32.85
2022-12-01T01:31:36.856Z,37.80
2022-12-01T01:34:03.817Z,41.92
2022-12-01T01:36:30.933Z,39.58
2022-12-01T01:38:57.403Z,33.53
2022-12-01T01:41:24.725Z,34.13
2022-12-01T01:43:54.982Z,29.73
2022-12-01T01:46:24.260Z,45.42
2022-12-01T01:48:55.134Z,40.20
2022-12-01T01:51:30.648Z,41.83
2022-12-01T01:54:04.110Z,31.20
2022-12-01T01:56:30.938Z,40.85
2022-12-01T01:58:59.165Z,40.10
2022-12-01T02:01:25.620Z,31.95
2022-12-01T02:03:54.403Z,42.83
2022-12-01T02:06:23.957Z,43.42
2022-12-01T02:08:50.788Z,38.55
2022-12-01T02:11:32.834Z,39.15
2022-12-01T02:14:24.983Z,39.65
2022-12-01T02:17:13.250Z,36.83
2022-12-01T02:19:45.804Z,36.20
2022-12-01T02:22:30.013Z,35.10
2022-12-01T02:25:41.312Z,33.83
2022-12-01T02:28:48.168Z,34.17
2022-12-01T02:31:22.588Z,35.67
2022-12-01T02:33:53.059Z,35.85
2022-12-01T02:36:37.963Z,38.33
2022-12-01T02:42:40.034Z,34.00
2022-12-01T02:45:11.929Z,40.30
2022-12-01T02:47:40.994Z,36.53
2022-12-01T02:50:10.075Z,33.83
2022-12-01T02:52:38.437Z,45.15
2022-12-01T02:55:05.194Z,28.48
2022-12-01T02:57:31.676Z,42.28
2022-12-01T02:59:59.919Z,33.40
2022-12-01T03:02:43.846Z,38.80
2022-12-01T03:05:32.901Z,33.80
2022-12-01T03:08:05.193Z,32.22
2022-12-01T03:10:52.138Z,36.70
2022-12-01T03:13:21.511Z,37.38
2022-12-01T03:16:04.414Z,35.13
2022-12-01T03:18:42.345Z,38.33
2022-12-01T03:21:28.279Z,43.38
2022-12-01T03:24:08.722Z,25.98
2022-12-01T03:26:37.441Z,41.38
2022-12-01T03:29:13.492Z,37.17
2022-12-01T03:31:45.891Z,31.30
2022-12-01T03:34:28.301Z,38.70
2022-12-01T03:37:03.912Z,45.20
2022-12-01T03:39:33.423Z,39.88
2022-12-01T03:42:13.415Z,42.25
2022-12-01T03:44:46.256Z,43.38
2022-12-01T03:47:17.275Z,33.95
2022-12-01T03:49:45.660Z,42.00
2022-12-01T03:52:36.983Z,36.00
2022-12-01T03:55:22.562Z,34.80
2022-12-01T03:57:58.277Z,43.70
2022-12-01T04:00:25.130Z,32.92
2022-12-01T04:02:56.813Z,42.83
2022-12-01T04:05:25.437Z,50.95
2022-12-01T04:07:52.422Z,53.72
2022-12-01T04:10:19.086Z,52.70
2022-12-01T04:12:45.620Z,33.20
2022-12-01T04:15:14.326Z,49.60
2022-12-01T04:17:45.089Z,37.15
2022-12-01T04:20:15.881Z,55.88
2022-12-01T04:22:42.365Z,44.03
2022-12-01T04:25:09.762Z,42.55
2022-12-01T04:27:36.720Z,48.78
2022-12-01T04:30:05.346Z,43.72
2022-12-01T04:32:31.766Z,43.92
2022-12-01T04:34:58.211Z,53.65
2022-12-01T04:37:25.009Z,45.85
2022-12-01T04:39:51.815Z,41.25
2022-12-01T04:42:18.475Z,49.15
2022-12-01T04:44:44.929Z,38.05
2022-12-01T04:47:11.347Z,41.70
2022-12-01T04:49:37.819Z,57.63
2022-12-01T04:52:04.496Z,38.47
2022-12-01T04:54:30.929Z,58.63
2022-12-01T04:56:57.387Z,46.70
2022-12-01T04:59:23.923Z,41.55
2022-12-01T05:01:50.506Z,53.53
2022-12-01T05:04:17.011Z,49.08
2022-12-01T05:06:43.560Z,39.55
2022-12-01T05:09:17.127Z,58.28
2022-12-01T05:11:44.740Z,37.35
2022-12-01T05:14:11.195Z,56.70
2022-12-01T05:16:37.699Z,64.03
2022-12-01T05:19:24.898Z,48.17
2022-12-01T05:21:51.970Z,56.67
2022-12-01T05:24:19.712Z,68.85
2022-12-01T05:26:46.231Z,57.53
2022-12-01T05:29:13.689Z,54.22
2022-12-01T05:31:40.225Z,57.25
2022-12-01T05:34:07.522Z,67.90
2022-12-01T05:36:33.996Z,60.05
2022-12-01T05:39:00.434Z,45.25
2022-12-01T05:41:26.899Z,66.10
2022-12-01T05:43:53.344Z,59.42
2022-12-01T05:46:19.907Z,57.15
2022-12-01T05:48:47.197Z,59.58
2022-12-01T05:51:16.155Z,72.93
2022-12-01T05:53:43.439Z,81.00
2022-12-01T05:56:10.042Z,57.72
2022-12-01T05:58:36.521Z,67.15
2022-12-01T06:01:03.935Z,69.25
2022-12-01T06:03:30.521Z,56.33
2022-12-01T06:05:57.002Z,43.10
2022-12-01T06:08:23.515Z,56.10
2022-12-01T06:10:49.995Z,54.67
2022-12-01T06:13:16.550Z,69.75
2022-12-01T06:15:43.106Z,52.55
2022-12-01T06:18:09.548Z,60.42
2022-12-01T06:20:35.986Z,49.38
2022-12-01T06:23:02.483Z,57.40
2022-12-01T06:25:28.945Z,60.38
2022-12-01T06:27:57.386Z,55.95
2022-12-01T06:30:24.339Z,59.45
2022-12-01T06:32:50.818Z,67.82
2022-12-01T06:35:17.259Z,71.18
2022-12-01T06:37:43.707Z,55.58
2022-12-01T06:40:10.942Z,69.32
2022-12-01T06:42:37.366Z,76.68
2022-12-01T06:45:04.067Z,78.70
2022-12-01T06:47:30.800Z,59.60
2022-12-01T06:49:57.337Z,54.45
2022-12-01T06:52:23.824Z,65.80
2022-12-01T06:54:50.281Z,58.85
2022-12-01T06:57:17.139Z,57.75
2022-12-01T06:59:43.882Z,66.35
2022-12-01T07:02:11.493Z,57.22
2022-12-01T07:04:38.013Z,49.13
2022-12-01T07:07:05.626Z,68.85
2022-12-01T07:09:32.073Z,50.63
2022-12-01T07:11:58.489Z,51.35
2022-12-01T07:14:26.713Z,47.92
2022-12-01T07:16:53.427Z,62.97
2022-12-01T07:19:19.995Z,46.72
2022-12-01T07:21:46.437Z,54.78
2022-12-01T07:24:13.171Z,49.25
2022-12-01T07:26:41.085Z,51.58
2022-12-01T07:29:09.246Z,53.10
2022-12-01T07:31:37.057Z,50.97
2022-12-01T07:34:05.053Z,58.47
2022-12-01T07:36:31.575Z,55.05
2022-12-01T07:38:58.099Z,47.10
2022-12-01T07:41:24.572Z,49.83
2022-12-01T07:43:51.131Z,47.13
2022-12-01T07:46:23.052Z,60.15
2022-12-01T07:48:51.503Z,62.42
2022-12-01T07:51:18.097Z,51.15
2022-12-01T07:53:46.433Z,66.13
2022-12-01T07:56:13.769Z,49.20
2022-12-01T07:58:40.620Z,61.60
2022-12-01T08:01:12.741Z,56.20
2022-12-01T08:03:40.128Z,56.40
2022-12-01T08:06:07.805Z,45.28
2022-12-01T08:08:36.050Z,59.05
2022-12-01T08:11:09.666Z,56.88
2022-12-01T08:13:36.286Z,54.40
2022-12-01T08:16:05.231Z,46.83
2022-12-01T08:18:37.844Z,60.88
2022-12-01T08:21:05.608Z,65.80
2022-12-01T08:23:32.100Z,46.65
2022-12-01T08:26:03.056Z,42.97
2022-12-01T08:28:29.819Z,40.13
2022-12-01T08:30:56.606Z,56.55
2022-12-01T08:33:23.615Z,54.22
2022-12-01T08:35:50.062Z,50.75
2022-12-01T08:38:16.908Z,40.65
2022-12-01T08:40:43.346Z,53.03
2022-12-01T08:43:15.211Z,44.80
2022-12-01T08:45:49.453Z,66.32
2022-12-01T08:48:15.892Z,46.30
2022-12-01T08:50:42.324Z,59.78
2022-12-01T08:53:08.755Z,61.03
2022-12-01T08:55:35.232Z,52.03
2022-12-01T08:58:01.645Z,47.60
2022-12-01T09:00:28.761Z,64.13
2022-12-01T09:02:55.299Z,69.45
2022-12-01T09:05:21.814Z,77.50
2022-12-01T09:08:08.302Z,65.13
2022-12-01T09:10:34.753Z,78.35
2022-12-01T09:13:01.211Z,72.25
2022-12-01T09:15:27.657Z,62.13
2022-12-01T09:17:54.103Z,51.58
2022-12-01T09:20:20.678Z,63.17
2022-12-01T09:22:47.136Z,60.10
2022-12-01T09:25:14.720Z,56.40
2022-12-01T09:27:41.233Z,66.13
2022-12-01T09:30:08.309Z,58.15
2022-12-01T09:32:34.724Z,62.72
2022-12-01T09:35:01.150Z,58.30
2022-12-01T09:37:27.581Z,59.47
2022-12-01T09:39:54.025Z,55.15
2022-12-01T09:42:32.245Z,58.58
2022-12-01T09:45:02.681Z,67.00
2022-12-01T09:47:33.097Z,71.72
2022-12-01T09:50:23.980Z,63.67
2022-12-01T09:53:15.417Z,59.38
2022-12-01T09:55:42.345Z,62.85
2022-12-01T09:58:18.036Z,64.70
2022-12-01T10:00:46.922Z,60.67
2022-12-01T10:03:40.455Z,61.80
2022-12-01T10:06:27.103Z,66.95
2022-12-01T10:09:13.102Z,53.53
2022-12-01T10:11:42.606Z,64.50
2022-12-01T10:14:19.774Z,59.78
2022-12-01T10:17:39.700Z,60.45
2022-12-01T10:20:20.698Z,64.45
2022-12-01T10:23:02.531Z,54.70
2022-12-01T10:25:42.224Z,59.03
2022-12-01T10:28:36.919Z,57.22
2022-12-01T10:31:34.488Z,52.45
2022-12-01T10:34:07.872Z,64.32
2022-12-01T10:36:34.734Z,61.15
2022-12-01T10:39:04.601Z,58.97
2022-12-01T10:41:35.631Z,53.22
2022-12-01T10:44:05.486Z,52.45
2022-12-01T10:46:52.403Z,59.03
2022-12-01T10:49:19.806Z,58.72
2022-12-01T10:52:06.995Z,54.13
2022-12-01T10:54:36.994Z,59.08
2022-12-01T10:57:05.300Z,53.30
2022-12-01T10:59:37.817Z,60.78
2022-12-01T11:02:14.781Z,57.95
2022-12-01T11:05:02.705Z,61.75
2022-12-01T11:07:33.438Z,50.33
2022-12-01T11:10:14.438Z,65.88
2022-12-01T11:12:43.036Z,60.10
2022-12-01T11:15:20.896Z,61.85
2022-12-01T11:17:47.579Z,62.97
2022-12-01T11:20:27.994Z,63.08
2022-12-01T11:23:09.582Z,69.43
2022-12-01T11:25:36.694Z,63.13
2022-12-01T11:28:04.440Z,67.07
2022-12-01T11:30:32.695Z,57.30
2022-12-01T11:33:02.023Z,70.22
2022-12-01T11:35:32.080Z,67.47
2022-12-01T11:40:56.380Z,64.05
2022-12-01T11:43:30.586Z,67.70
2022-12-01T11:45:59.641Z,50.65
2022-12-01T11:48:27.550Z,60.00
2022-12-01T11:51:07.292Z,49.90
2022-12-01T11:53:37.326Z,57.22
2022-12-01T11:56:14.894Z,53.67
2022-12-01T11:58:43.008Z,59.22
2022-12-01T12:01:22.186Z,50.38
2022-12-01T12:03:54.066Z,63.08
2022-12-01T12:12:46.818Z,56.92
2022-12-01T12:15:44.573Z,55.03
2022-12-01T12:18:25.244Z,54.45
2022-12-01T12:21:19.662Z,49.13
2022-12-01T12:24:13.441Z,48.28
2022-12-01T12:26:50.074Z,52.80
2022-12-01T12:29:45.570Z,51.50
2022-12-01T12:32:46.080Z,51.85
2022-12-01T12:35:36.287Z,57.85
2022-12-01T12:38:38.256Z,54.08
2022-12-01T12:41:30.784Z,66.25
2022-12-01T12:44:22.751Z,62.67
2022-12-01T12:47:21.601Z,57.67
2022-12-01T12:50:00.264Z,55.10
2022-12-01T12:52:33.526Z,56.28
2022-12-01T12:55:15.413Z,59.65
2022-12-01T12:58:29.075Z,55.60
2022-12-01T13:01:03.505Z,54.33
2022-12-01T13:03:45.287Z,45.03
2022-12-01T13:06:19.676Z,49.33
2022-12-01T13:08:53.370Z,39.35
2022-12-01T13:11:46.088Z,41.47
2022-12-01T13:14:33.038Z,48.17
2022-12-01T13:17:15.697Z,58.45
2022-12-01T13:19:42.833Z,50.75
2022-12-01T13:22:12.483Z,48.85
2022-12-01T13:24:39.230Z,44.95
2022-12-01T13:27:13.068Z,51.55
2022-12-01T13:29:46.154Z,48.35
2022-12-01T13:32:36.758Z,48.15
2022-12-01T13:37:35.591Z,54.03
2022-12-01T13:40:22.876Z,55.00
2022-12-01T13:43:10.637Z,52.78
2022-12-01T13:45:40.119Z,53.65
2022-12-01T13:48:47.959Z,53.53
2022-12-01T13:51:14.825Z,47.10
2022-12-01T13:54:05.347Z,44.13
2022-12-01T13:56:46.653Z,56.38
2022-12-01T13:59:41.192Z,48.65
2022-12-01T14:02:17.761Z,41.00
2022-12-01T14:04:44.423Z,45.58
2022-12-01T14:07:34.112Z,42.20
2022-12-01T14:10:22.545Z,45.10
2022-12-01T14:12:50.224Z,51.88
2022-12-01T14:15:33.728Z,38.38
2022-12-01T14:18:05.512Z,52.80
2022-12-01T14:20:37.791Z,47.75
2022-12-01T14:23:28.928Z,41.97
2022-12-01T14:26:19.451Z,46.38
2022-12-01T14:28:55.067Z,49.88
2022-12-01T14:31:33.729Z,41.47
2022-12-01T14:34:19.357Z,51.83
2022-12-01T14:36:56.789Z,41.65
2022-12-01T14:39:27.064Z,43.83
2022-12-01T14:41:58.532Z,43.40
2022-12-01T14:44:44.683Z,48.92
2022-12-01T14:47:20.867Z,47.28
2022-12-01T14:49:50.817Z,50.92
2022-12-01T14:52:39.783Z,53.63
2022-12-01T14:55:29.530Z,53.38
2022-12-01T14:58:05.059Z,43.33
2022-12-01T15:00:36.433Z,45.65
2022-12-01T15:03:09.646Z,53.58
2022-12-01T15:05:41.908Z,59.25
2022-12-01T15:11:21.393Z,45.63
2022-12-01T15:13:56.247Z,56.40
2022-12-01T15:16:29.222Z,48.05
2022-12-01T15:18:56.265Z,54.20
2022-12-01T15:21:31.822Z,48.63
2022-12-01T15:24:04.378Z,47.17
2022-12-01T15:26:32.273Z,47.10
2022-12-01T15:29:31.222Z,55.08
2022-12-01T15:32:04.714Z,47.00
2022-12-01T15:34:35.004Z,51.20
2022-12-01T15:37:05.343Z,51.80
2022-12-01T15:40:11.907Z,55.67
2022-12-01T15:42:43.893Z,58.28
2022-12-01T15:45:21.261Z,50.90
2022-12-01T15:47:50.006Z,58.08
2022-12-01T15:50:30.982Z,48.80
2022-12-01T15:52:58.647Z,57.38
2022-12-01T15:55:32.609Z,50.63
2022-12-01T15:58:00.269Z,50.50
2022-12-01T16:00:27.048Z,58.35
2022-12-01T16:02:56.572Z,54.97
2022-12-01T16:05:29.944Z,58.53
2022-12-01T16:08:13.502Z,53.50
2022-12-01T16:10:40.520Z,49.80
2022-12-01T16:13:35.654Z,54.97
2022-12-01T16:16:23.068Z,51.15
2022-12-01T16:18:55.795Z,54.05
2022-12-01T16:21:22.917Z,41.10
2022-12-01T16:24:01.095Z,48.83
2022-12-01T16:26:28.440Z,42.10
2022-12-01T16:28:55.686Z,44.03
2022-12-01T16:31:22.635Z,47.08
2022-12-01T16:34:00.316Z,48.00
2022-12-01T16:36:27.155Z,48.97
2022-12-01T16:38:53.637Z,45.20
2022-12-01T16:41:36.383Z,47.97
2022-12-01T16:44:27.590Z,50.08
2022-12-01T16:46:52.574Z,36.75
2022-12-01T16:49:19.038Z,37.97
2022-12-01T16:52:11.114Z,42.53
2022-12-01T16:54:31.940Z,40.90
2022-12-01T16:56:58.371Z,47.00
2022-12-01T16:59:25.261Z,36.40
2022-12-01T17:01:51.747Z,39.05
2022-12-01T17:04:18.344Z,54.67
2022-12-01T17:06:44.784Z,35.63
2022-12-01T17:09:11.263Z,51.95
2022-12-01T17:11:37.699Z,41.20
2022-12-01T17:14:04.211Z,43.17
2022-12-01T17:16:30.735Z,39.85
2022-12-01T17:18:57.247Z,44.55
2022-12-01T17:21:23.740Z,44.60
2022-12-01T17:23:50.174Z,39.20
2022-12-01T17:26:18.989Z,38.35
2022-12-01T17:28:46.728Z,47.53
2022-12-01T17:31:13.850Z,44.75
2022-12-01T17:33:41.062Z,49.97
2022-12-01T17:36:11.265Z,44.13
2022-12-01T17:38:39.331Z,36.42
2022-12-01T17:41:09.101Z,46.67
2022-12-01T17:43:37.389Z,39.72
2022-12-01T17:46:05.701Z,49.95
2022-12-01T17:48:40.828Z,46.28
2022-12-01T17:51:08.887Z,35.55
2022-12-01T17:53:36.086Z,30.00
2022-12-01T17:56:02.704Z,41.33
2022-12-01T17:58:30.201Z,51.00
2022-12-01T18:00:56.633Z,48.05
2022-12-01T18:03:23.127Z,44.88
2022-12-01T18:05:57.147Z,50.40
2022-12-01T18:08:25.692Z,46.67
2022-12-01T18:10:52.915Z,48.95
2022-12-01T18:13:21.455Z,46.63
2022-12-01T18:15:48.810Z,42.28
2022-12-01T18:18:15.518Z,49.53
2022-12-01T18:20:43.645Z,48.15
2022-12-01T18:23:11.142Z,46.60
2022-12-01T18:25:38.946Z,55.38
2022-12-01T18:28:06.136Z,50.22
2022-12-01T18:30:33.612Z,55.30
2022-12-01T18:33:01.001Z,42.38
2022-12-01T18:35:31.803Z,51.28
2022-12-01T18:37:58.699Z,52.47
2022-12-01T18:40:26.019Z,48.70
2022-12-01T18:42:52.443Z,51.92
2022-12-01T18:45:21.499Z,56.67
2022-12-01T18:47:48.144Z,59.58
2022-12-01T18:50:14.937Z,39.28
2022-12-01T18:52:41.556Z,46.13
2022-12-01T18:55:08.757Z,46.47
2022-12-01T18:57:35.554Z,45.90
2022-12-01T19:00:04.673Z,58.67
2022-12-01T19:02:31.211Z,53.53
2022-12-01T19:04:57.750Z,60.10
2022-12-01T19:07:29.530Z,44.92
2022-12-01T19:09:56.339Z,60.67
2022-12-01T19:12:24.411Z,52.83
2022-12-01T19:14:52.949Z,59.20
2022-12-01T19:17:19.947Z,59.88
2022-12-01T19:19:47.368Z,59.70
2022-12-01T19:22:14.023Z,53.67
2022-12-01T19:24:40.477Z,39.92
2022-12-01T19:27:07.124Z,48.15
2022-12-01T19:29:33.672Z,51.78
2022-12-01T19:32:00.614Z,50.53
2022-12-01T19:34:27.491Z,53.95
2022-12-01T19:36:56.804Z,52.67
2022-12-01T19:39:23.973Z,44.30
2022-12-01T19:41:51.965Z,51.25
2022-12-01T19:44:18.665Z,48.92
2022-12-01T19:46:45.402Z,42.67
2022-12-01T19:49:11.874Z,44.35
2022-12-01T19:51:39.523Z,37.95
2022-12-01T19:54:15.421Z,45.88
2022-12-01T19:56:42.669Z,48.80
2022-12-01T19:59:11.209Z,48.17
2022-12-01T20:01:38.011Z,46.28
2022-12-01T20:04:04.625Z,50.65
2022-12-01T20:06:33.340Z,49.80
2022-12-01T20:09:02.021Z,39.63
2022-12-01T20:11:29.848Z,48.63
2022-12-01T20:13:56.693Z,48.60
2022-12-01T20:16:24.584Z,43.55
2022-12-01T20:18:52.210Z,44.65
2022-12-01T20:21:24.208Z,47.20
2022-12-01T20:24:04.566Z,48.55
2022-12-01T20:26:37.298Z,39.95
2022-12-01T20:29:08.195Z,41.67
2022-12-01T20:31:35.344Z,34.22
2022-12-01T20:34:04.947Z,45.70
2022-12-01T20:36:31.521Z,48.55
2022-12-01T20:38:58.031Z,47.47
2022-12-01T20:41:24.471Z,46.25
2022-12-01T20:43:50.927Z,43.53
2022-12-01T20:46:17.473Z,35.83
2022-12-01T20:48:44.072Z,34.28
2022-12-01T20:51:13.939Z,48.17
2022-12-01T20:53:42.436Z,51.75
2022-12-01T20:56:17.190Z,43.45
2022-12-01T20:58:43.717Z,48.47
2022-12-01T21:01:12.657Z,51.67
2022-12-01T21:03:41.977Z,45.55
2022-12-01T21:06:09.961Z,42.08
2022-12-01T21:08:41.638Z,46.92
2022-12-01T21:11:48.021Z,42.55
2022-12-01T21:14:35.174Z,45.20
2022-12-01T21:17:11.080Z,38.80
2022-12-01T21:19:53.315Z,52.42
2022-12-01T21:22:20.129Z,55.13
2022-12-01T21:24:51.062Z,48.65
2022-12-01T21:27:18.204Z,46.65
2022-12-01T21:29:47.617Z,49.00
2022-12-01T21:32:26.939Z,47.25
2022-12-01T21:34:55.529Z,53.42
2022-12-01T21:37:24.582Z,46.90
2022-12-01T21:39:52.928Z,44.65
2022-12-01T21:42:22.146Z,37.60
2022-12-01T21:44:49.205Z,44.30
2022-12-01T21:47:20.257Z,50.53
2022-12-01T21:49:50.594Z,46.65
2022-12-01T21:52:20.142Z,50.42
2022-12-01T21:54:47.062Z,61.90
2022-12-01T21:57:47.309Z,55.63
2022-12-01T22:00:25.663Z,50.05
2022-12-01T22:03:30.943Z,52.50
2022-12-01T22:06:29.907Z,50.22
2022-12-01T22:09:11.588Z,49.33
2022-12-01T22:11:38.050Z,53.17
2022-12-01T22:14:21.831Z,51.75
2022-12-01T22:16:56.225Z,54.33
2022-12-01T22:19:27.657Z,53.83
2022-12-01T22:22:09.319Z,53.97
2022-12-01T22:24:49.574Z,48.90
2022-12-01T22:27:26.922Z,53.58
2022-12-01T22:30:19.478Z,52.78
2022-12-01T22:33:05.460Z,57.00
2022-12-01T22:35:44.978Z,51.00
2022-12-01T22:38:20.765Z,51.53
2022-12-01T22:41:26.600Z,52.45
2022-12-01T22:44:00.467Z,57.53
2022-12-01T22:46:33.782Z,55.28
2022-12-01T22:49:08.046Z,36.88
2022-12-01T22:51:56.875Z,45.97
2022-12-01T22:54:34.823Z,37.30
2022-12-01T22:57:14.801Z,51.10
2022-12-01T22:59:44.617Z,45.20
2022-12-01T23:02:23.473Z,48.60
2022-12-01T23:04:55.753Z,56.00
2022-12-01T23:07:36.820Z,40.75
2022-12-01T23:10:17.044Z,49.08
2022-12-01T23:12:45.233Z,52.88
2022-12-01T23:15:27.255Z,56.97
2022-12-01T23:17:53.873Z,47.42
2022-12-01T23:20:20.268Z,53.67
2022-12-01T23:22:47.499Z,52.00
2022-12-01T23:25:18.155Z,56.83
2022-12-01T23:27:51.045Z,59.35
2022-12-01T23:30:19.357Z,56.03
2022-12-01T23:32:55.699Z,56.25
2022-12-01T23:35:22.138Z,58.15
2022-12-01T23:37:48.602Z,57.78
2022-12-01T23:40:20.516Z,56.40
2022-12-01T23:42:47.470Z,50.00
2022-12-01T23:45:19.293Z,56.47
2022-12-01T23:50:24.694Z,53.50
2022-12-01T23:52:51.762Z,53.38
2022-12-01T23:55:23.047Z,56.92
2022-12-01T23:57:49.987Z,63.75
